sensor_id;sensor_type;location;lat;lon;timestamp;P1;durP1;ratioP1;P2;durP2;ratioP2
20884;SDS011;10602;48.000;9.654;2024-03-23T00:54:36;5.73;;;3.70;;
20884;SDS011;10602;48.000;9.654;2024-03-23T00:57:03;4.33;;;3.53;;
20884;SDS011;10602;48.000;9.654;2024-03-23T00:59:31;6.37;;;4.47;;
20884;SDS011;10602;48.000;9.654;2024-03-23T01:01:58;6.33;;;4.57;;
20884;SDS011;10602;48.000;9.654;2024-03-23T01:04:26;6.60;;;4.87;;
20884;SDS011;10602;48.000;9.654;2024-03-23T01:06:53;4.97;;;3.70;;
20884;SDS011;10602;48.000;9.654;2024-03-23T01:09:21;5.07;;;3.73;;
20884;SDS011;10602;48.000;9.654;2024-03-23T01:11:48;5.97;;;4.27;;
20884;SDS011;10602;48.000;9.654;2024-03-23T01:14:16;6.10;;;3.60;;
20884;SDS011;10602;48.000;9.654;2024-03-23T01:16:43;5.13;;;4.20;;
20884;SDS011;10602;48.000;9.654;2024-03-23T01:19:11;4.83;;;3.70;;
20884;SDS011;10602;48.000;9.654;2024-03-23T01:21:38;4.50;;;3.10;;
20884;SDS011;10602;48.000;9.654;2024-03-23T01:24:06;4.73;;;3.30;;
20884;SDS011;10602;48.000;9.654;2024-03-23T01:26:35;3.63;;;2.70;;
20884;SDS011;10602;48.000;9.654;2024-03-23T01:29:03;4.53;;;3.23;;
20884;SDS011;10602;48.000;9.654;2024-03-23T01:31:30;4.23;;;2.90;;
20884;SDS011;10602;48.000;9.654;2024-03-23T01:33:58;4.67;;;3.43;;
20884;SDS011;10602;48.000;9.654;2024-03-23T01:36:25;5.30;;;3.27;;
20884;SDS011;10602;48.000;9.654;2024-03-23T01:38:53;4.27;;;3.30;;
20884;SDS011;10602;48.000;9.654;2024-03-23T01:41:20;3.93;;;3.53;;
20884;SDS011;10602;48.000;9.654;2024-03-23T01:43:48;4.27;;;2.90;;
20884;SDS011;10602;48.000;9.654;2024-03-23T01:46:16;4.57;;;3.60;;
20884;SDS011;10602;48.000;9.654;2024-03-23T01:48:43;5.40;;;3.60;;
20884;SDS011;10602;48.000;9.654;2024-03-23T01:51:12;4.17;;;3.20;;
20884;SDS011;10602;48.000;9.654;2024-03-23T01:53:40;4.23;;;3.67;;
20884;SDS011;10602;48.000;9.654;2024-03-23T01:56:07;4.10;;;3.43;;
20884;SDS011;10602;48.000;9.654;2024-03-23T01:58:35;4.30;;;3.60;;
20884;SDS011;10602;48.000;9.654;2024-03-23T02:01:03;3.93;;;3.10;;
20884;SDS011;10602;48.000;9.654;2024-03-23T02:03:30;4.70;;;3.40;;
20884;SDS011;10602;48.000;9.654;2024-03-23T02:05:58;3.60;;;3.20;;
20884;SDS011;10602;48.000;9.654;2024-03-23T02:08:25;3.90;;;3.50;;
20884;SDS011;10602;48.000;9.654;2024-03-23T02:10:53;5.70;;;3.57;;
20884;SDS011;10602;48.000;9.654;2024-03-23T02:13:20;4.17;;;3.77;;
20884;SDS011;10602;48.000;9.654;2024-03-23T02:15:48;4.23;;;3.20;;
20884;SDS011;10602;48.000;9.654;2024-03-23T02:18:15;4.67;;;3.90;;
20884;SDS011;10602;48.000;9.654;2024-03-23T02:20:43;4.07;;;3.67;;
20884;SDS011;10602;48.000;9.654;2024-03-23T02:23:14;5.93;;;4.07;;
20884;SDS011;10602;48.000;9.654;2024-03-23T02:25:42;4.90;;;3.63;;
20884;SDS011;10602;48.000;9.654;2024-03-23T02:28:10;4.47;;;3.70;;
20884;SDS011;10602;48.000;9.654;2024-03-23T02:30:37;5.07;;;3.90;;
20884;SDS011;10602;48.000;9.654;2024-03-23T02:33:05;4.93;;;3.80;;
20884;SDS011;10602;48.000;9.654;2024-03-23T02:35:32;5.50;;;3.60;;
20884;SDS011;10602;48.000;9.654;2024-03-23T02:38:00;5.23;;;3.90;;
20884;SDS011;10602;48.000;9.654;2024-03-23T02:40:28;5.50;;;3.90;;
20884;SDS011;10602;48.000;9.654;2024-03-23T02:42:55;5.67;;;4.20;;
20884;SDS011;10602;48.000;9.654;2024-03-23T02:45:23;5.03;;;4.27;;
20884;SDS011;10602;48.000;9.654;2024-03-23T02:47:50;4.50;;;3.80;;
20884;SDS011;10602;48.000;9.654;2024-03-23T02:50:18;7.53;;;4.73;;
20884;SDS011;10602;48.000;9.654;2024-03-23T02:52:47;5.43;;;4.47;;
20884;SDS011;10602;48.000;9.654;2024-03-23T02:55:15;5.03;;;4.30;;
20884;SDS011;10602;48.000;9.654;2024-03-23T02:57:42;4.87;;;3.87;;
20884;SDS011;10602;48.000;9.654;2024-03-23T03:00:11;4.47;;;4.07;;
20884;SDS011;10602;48.000;9.654;2024-03-23T03:02:39;5.57;;;4.00;;
20884;SDS011;10602;48.000;9.654;2024-03-23T03:05:06;5.07;;;3.93;;
20884;SDS011;10602;48.000;9.654;2024-03-23T03:07:34;4.30;;;3.83;;
20884;SDS011;10602;48.000;9.654;2024-03-23T03:10:04;5.20;;;3.70;;
20884;SDS011;10602;48.000;9.654;2024-03-23T03:12:33;4.13;;;3.70;;
20884;SDS011;10602;48.000;9.654;2024-03-23T03:15:01;5.60;;;4.10;;
20884;SDS011;10602;48.000;9.654;2024-03-23T07:16:22;3.83;;;3.17;;
20884;SDS011;10602;48.000;9.654;2024-03-23T07:18:50;3.90;;;3.50;;
20884;SDS011;10602;48.000;9.654;2024-03-23T07:21:17;4.17;;;3.20;;
20884;SDS011;10602;48.000;9.654;2024-03-23T07:23:45;3.80;;;3.40;;
20884;SDS011;10602;48.000;9.654;2024-03-23T07:26:13;4.47;;;3.30;;
20884;SDS011;10602;48.000;9.654;2024-03-23T07:28:40;9.60;;;6.57;;
20884;SDS011;10602;48.000;9.654;2024-03-23T07:31:11;3.53;;;2.77;;
20884;SDS011;10602;48.000;9.654;2024-03-23T07:33:44;3.50;;;3.13;;
20884;SDS011;10602;48.000;9.654;2024-03-23T07:36:13;3.47;;;2.83;;
20884;SDS011;10602;48.000;9.654;2024-03-23T07:38:41;5.17;;;3.97;;
20884;SDS011;10602;48.000;9.654;2024-03-23T07:41:11;4.10;;;3.00;;
20884;SDS011;10602;48.000;9.654;2024-03-23T07:43:43;3.40;;;3.10;;
20884;SDS011;10602;48.000;9.654;2024-03-23T07:46:11;3.63;;;3.00;;
20884;SDS011;10602;48.000;9.654;2024-03-23T07:48:40;3.90;;;2.80;;
20884;SDS011;10602;48.000;9.654;2024-03-23T07:51:10;3.57;;;3.03;;
20884;SDS011;10602;48.000;9.654;2024-03-23T07:53:39;3.37;;;3.00;;
20884;SDS011;10602;48.000;9.654;2024-03-23T07:56:08;4.43;;;3.80;;
20884;SDS011;10602;48.000;9.654;2024-03-23T07:58:37;5.30;;;3.60;;
20884;SDS011;10602;48.000;9.654;2024-03-23T08:01:05;3.70;;;3.30;;
20884;SDS011;10602;48.000;9.654;2024-03-23T08:03:37;5.07;;;3.70;;
20884;SDS011;10602;48.000;9.654;2024-03-23T08:06:07;3.67;;;3.17;;
20884;SDS011;10602;48.000;9.654;2024-03-23T08:08:35;5.03;;;3.80;;
20884;SDS011;10602;48.000;9.654;2024-03-23T08:11:02;4.87;;;3.83;;
20884;SDS011;10602;48.000;9.654;2024-03-23T08:13:30;3.60;;;2.80;;
20884;SDS011;10602;48.000;9.654;2024-03-23T08:16:03;3.40;;;2.70;;
20884;SDS011;10602;48.000;9.654;2024-03-23T08:18:28;2.80;;;2.07;;
20884;SDS011;10602;48.000;9.654;2024-03-23T08:20:59;2.93;;;2.30;;
20884;SDS011;10602;48.000;9.654;2024-03-23T08:23:28;3.20;;;2.30;;
20884;SDS011;10602;48.000;9.654;2024-03-23T08:25:59;3.03;;;1.80;;
20884;SDS011;10602;48.000;9.654;2024-03-23T08:28:28;2.97;;;1.67;;
20884;SDS011;10602;48.000;9.654;2024-03-23T08:30:55;2.23;;;2.03;;
20884;SDS011;10602;48.000;9.654;2024-03-23T08:33:23;1.90;;;1.80;;
20884;SDS011;10602;48.000;9.654;2024-03-23T08:35:54;1.73;;;1.60;;
20884;SDS011;10602;48.000;9.654;2024-03-23T08:38:23;1.70;;;1.60;;
20884;SDS011;10602;48.000;9.654;2024-03-23T08:40:58;3.13;;;2.70;;
20884;SDS011;10602;48.000;9.654;2024-03-23T08:43:30;2.03;;;1.70;;
20884;SDS011;10602;48.000;9.654;2024-03-23T08:46:06;2.03;;;1.83;;
20884;SDS011;10602;48.000;9.654;2024-03-23T08:48:38;3.27;;;1.67;;
20884;SDS011;10602;48.000;9.654;2024-03-23T08:51:12;2.67;;;2.17;;
20884;SDS011;10602;48.000;9.654;2024-03-23T08:53:41;1.60;;;1.37;;
20884;SDS011;10602;48.000;9.654;2024-03-23T08:56:09;2.20;;;1.77;;
20884;SDS011;10602;48.000;9.654;2024-03-23T08:58:37;2.30;;;1.60;;
20884;SDS011;10602;48.000;9.654;2024-03-23T09:01:09;1.30;;;1.20;;
20884;SDS011;10602;48.000;9.654;2024-03-23T09:03:39;1.40;;;1.30;;
20884;SDS011;10602;48.000;9.654;2024-03-23T09:06:07;1.40;;;1.30;;
20884;SDS011;10602;48.000;9.654;2024-03-23T09:08:35;1.77;;;1.63;;
20884;SDS011;10602;48.000;9.654;2024-03-23T09:11:03;1.33;;;1.23;;
20884;SDS011;10602;48.000;9.654;2024-03-23T09:13:37;1.70;;;1.50;;
20884;SDS011;10602;48.000;9.654;2024-03-23T09:16:01;1.30;;;1.20;;
20884;SDS011;10602;48.000;9.654;2024-03-23T09:18:31;1.10;;;1.00;;
20884;SDS011;10602;48.000;9.654;2024-03-23T09:20:58;1.47;;;1.20;;
20884;SDS011;10602;48.000;9.654;2024-03-23T09:23:26;1.57;;;1.10;;
20884;SDS011;10602;48.000;9.654;2024-03-23T09:25:53;0.67;;;0.67;;
20884;SDS011;10602;48.000;9.654;2024-03-23T09:28:21;0.80;;;0.80;;
20884;SDS011;10602;48.000;9.654;2024-03-23T09:30:49;0.83;;;0.83;;
20884;SDS011;10602;48.000;9.654;2024-03-23T09:33:17;1.20;;;1.10;;
20884;SDS011;10602;48.000;9.654;2024-03-23T09:35:44;1.17;;;1.07;;
20884;SDS011;10602;48.000;9.654;2024-03-23T09:38:13;1.40;;;1.30;;
20884;SDS011;10602;48.000;9.654;2024-03-23T09:51:15;1.20;;;1.10;;
20884;SDS011;10602;48.000;9.654;2024-03-23T09:53:43;1.40;;;1.17;;
20884;SDS011;10602;48.000;9.654;2024-03-23T09:56:11;4.00;;;1.47;;
20884;SDS011;10602;48.000;9.654;2024-03-23T09:58:38;1.50;;;1.40;;
20884;SDS011;10602;48.000;9.654;2024-03-23T10:01:06;2.10;;;1.50;;
20884;SDS011;10602;48.000;9.654;2024-03-23T10:03:44;2.33;;;1.50;;
20884;SDS011;10602;48.000;9.654;2024-03-23T10:06:12;1.73;;;1.40;;
20884;SDS011;10602;48.000;9.654;2024-03-23T10:08:40;2.23;;;1.50;;
20884;SDS011;10602;48.000;9.654;2024-03-23T10:11:16;1.50;;;1.40;;
20884;SDS011;10602;48.000;9.654;2024-03-23T10:13:47;2.03;;;1.50;;
20884;SDS011;10602;48.000;9.654;2024-03-23T10:16:21;3.30;;;1.80;;
20884;SDS011;10602;48.000;9.654;2024-03-23T10:18:50;3.67;;;1.80;;
20884;SDS011;10602;48.000;9.654;2024-03-23T10:21:18;2.80;;;1.80;;
20884;SDS011;10602;48.000;9.654;2024-03-23T10:23:45;3.07;;;1.80;;
20884;SDS011;10602;48.000;9.654;2024-03-23T10:26:18;2.57;;;1.80;;
20884;SDS011;10602;48.000;9.654;2024-03-23T10:28:54;3.33;;;2.00;;
20884;SDS011;10602;48.000;9.654;2024-03-23T10:31:27;2.67;;;1.70;;
20884;SDS011;10602;48.000;9.654;2024-03-23T10:33:56;1.80;;;1.60;;
20884;SDS011;10602;48.000;9.654;2024-03-23T10:36:24;2.40;;;1.70;;
20884;SDS011;10602;48.000;9.654;2024-03-23T10:38:52;4.27;;;1.70;;
20884;SDS011;10602;48.000;9.654;2024-03-23T10:41:21;2.30;;;1.67;;
20884;SDS011;10602;48.000;9.654;2024-03-23T10:43:49;3.40;;;1.80;;
20884;SDS011;10602;48.000;9.654;2024-03-23T10:46:17;2.50;;;1.67;;
20884;SDS011;10602;48.000;9.654;2024-03-23T10:48:44;2.80;;;1.80;;
20884;SDS011;10602;48.000;9.654;2024-03-23T10:51:12;3.43;;;1.80;;
20884;SDS011;10602;48.000;9.654;2024-03-23T10:53:41;3.47;;;1.80;;
20884;SDS011;10602;48.000;9.654;2024-03-23T10:56:09;3.93;;;2.17;;
20884;SDS011;10602;48.000;9.654;2024-03-23T10:58:40;3.10;;;1.77;;
20884;SDS011;10602;48.000;9.654;2024-03-23T11:01:13;3.00;;;2.10;;
20884;SDS011;10602;48.000;9.654;2024-03-23T11:03:46;4.90;;;2.60;;
20884;SDS011;10602;48.000;9.654;2024-03-23T11:09:05;5.93;;;2.40;;
20884;SDS011;10602;48.000;9.654;2024-03-23T11:12:33;2.83;;;2.40;;
20884;SDS011;10602;48.000;9.654;2024-03-23T11:17:41;6.50;;;2.80;;
20884;SDS011;10602;48.000;9.654;2024-03-23T11:20:17;3.90;;;2.50;;
20884;SDS011;10602;48.000;9.654;2024-03-23T11:22:47;4.60;;;2.67;;
20884;SDS011;10602;48.000;9.654;2024-03-23T11:25:17;3.77;;;2.60;;
20884;SDS011;10602;48.000;9.654;2024-03-23T11:27:47;4.63;;;2.50;;
20884;SDS011;10602;48.000;9.654;2024-03-23T11:30:17;3.87;;;2.43;;
20884;SDS011;10602;48.000;9.654;2024-03-23T11:32:53;5.40;;;2.93;;
20884;SDS011;10602;48.000;9.654;2024-03-23T11:35:31;5.50;;;2.80;;
20884;SDS011;10602;48.000;9.654;2024-03-23T11:38:15;4.77;;;3.00;;
20884;SDS011;10602;48.000;9.654;2024-03-23T11:40:52;4.53;;;2.90;;
20884;SDS011;10602;48.000;9.654;2024-03-23T11:43:20;4.47;;;3.07;;
20884;SDS011;10602;48.000;9.654;2024-03-23T20:03:13;2.93;;;1.00;;
20884;SDS011;10602;48.000;9.654;2024-03-23T20:05:41;1.50;;;1.33;;
20884;SDS011;10602;48.000;9.654;2024-03-23T20:08:08;3.53;;;1.50;;
20884;SDS011;10602;48.000;9.654;2024-03-23T20:10:36;2.43;;;1.40;;
20884;SDS011;10602;48.000;9.654;2024-03-23T20:13:04;1.30;;;1.20;;
20884;SDS011;10602;48.000;9.654;2024-03-23T20:15:32;4.50;;;2.20;;
20884;SDS011;10602;48.000;9.654;2024-03-23T20:17:59;1.77;;;1.30;;
20884;SDS011;10602;48.000;9.654;2024-03-23T20:20:28;1.10;;;1.00;;
20884;SDS011;10602;48.000;9.654;2024-03-23T20:22:55;2.70;;;1.40;;
20884;SDS011;10602;48.000;9.654;2024-03-23T20:25:23;2.50;;;1.27;;
20884;SDS011;10602;48.000;9.654;2024-03-23T20:27:50;1.20;;;1.10;;
20884;SDS011;10602;48.000;9.654;2024-03-23T20:30:18;2.37;;;1.43;;
20884;SDS011;10602;48.000;9.654;2024-03-23T20:32:45;3.50;;;1.20;;
20884;SDS011;10602;48.000;9.654;2024-03-23T20:35:15;2.37;;;1.43;;
20884;SDS011;10602;48.000;9.654;2024-03-23T20:37:42;2.57;;;1.47;;
20884;SDS011;10602;48.000;9.654;2024-03-23T20:40:10;2.27;;;1.50;;
20884;SDS011;10602;48.000;9.654;2024-03-23T20:42:37;2.37;;;1.40;;
20884;SDS011;10602;48.000;9.654;2024-03-23T20:45:05;1.83;;;1.20;;
20884;SDS011;10602;48.000;9.654;2024-03-23T20:47:32;1.60;;;1.10;;
20884;SDS011;10602;48.000;9.654;2024-03-23T20:50:02;2.40;;;1.73;;
20884;SDS011;10602;48.000;9.654;2024-03-23T20:52:30;2.73;;;1.20;;
20884;SDS011;10602;48.000;9.654;2024-03-23T20:54:58;1.57;;;1.20;;
20884;SDS011;10602;48.000;9.654;2024-03-23T20:57:25;2.50;;;1.60;;
20884;SDS011;10602;48.000;9.654;2024-03-23T20:59:53;1.77;;;1.53;;
20884;SDS011;10602;48.000;9.654;2024-03-23T21:02:22;6.57;;;2.50;;
20884;SDS011;10602;48.000;9.654;2024-03-23T22:09:24;1.97;;;1.73;;
20884;SDS011;10602;48.000;9.654;2024-03-23T22:11:53;2.63;;;1.90;;
20884;SDS011;10602;48.000;9.654;2024-03-23T22:14:23;2.30;;;1.80;;
20884;SDS011;10602;48.000;9.654;2024-03-23T22:16:50;2.40;;;1.60;;
20884;SDS011;10602;48.000;9.654;2024-03-23T22:19:18;2.60;;;1.83;;
20884;SDS011;10602;48.000;9.654;2024-03-23T22:21:45;2.50;;;1.80;;
20884;SDS011;10602;48.000;9.654;2024-03-23T22:24:13;2.17;;;1.87;;
20884;SDS011;10602;48.000;9.654;2024-03-23T22:26:40;2.37;;;1.60;;
20884;SDS011;10602;48.000;9.654;2024-03-23T22:29:09;3.23;;;1.63;;
20884;SDS011;10602;48.000;9.654;2024-03-23T22:31:36;1.73;;;1.53;;
20884;SDS011;10602;48.000;9.654;2024-03-23T22:34:04;2.83;;;1.80;;
20884;SDS011;10602;48.000;9.654;2024-03-23T22:36:33;2.50;;;1.50;;
20884;SDS011;10602;48.000;9.654;2024-03-23T22:39:00;1.80;;;1.23;;
20884;SDS011;10602;48.000;9.654;2024-03-23T22:41:29;3.20;;;1.60;;
20884;SDS011;10602;48.000;9.654;2024-03-23T22:43:57;3.20;;;1.90;;
20884;SDS011;10602;48.000;9.654;2024-03-23T22:46:24;1.77;;;1.40;;
20884;SDS011;10602;48.000;9.654;2024-03-23T22:48:52;1.77;;;1.40;;
20884;SDS011;10602;48.000;9.654;2024-03-23T22:51:19;2.17;;;1.70;;
20884;SDS011;10602;48.000;9.654;2024-03-23T22:53:47;2.67;;;1.60;;
20884;SDS011;10602;48.000;9.654;2024-03-23T22:56:14;3.63;;;1.90;;
20884;SDS011;10602;48.000;9.654;2024-03-23T22:58:44;2.23;;;1.40;;
20884;SDS011;10602;48.000;9.654;2024-03-23T23:01:11;2.33;;;1.60;;
20884;SDS011;10602;48.000;9.654;2024-03-23T23:03:39;2.43;;;1.63;;
20884;SDS011;10602;48.000;9.654;2024-03-23T23:06:07;3.17;;;1.40;;
20884;SDS011;10602;48.000;9.654;2024-03-23T23:08:35;3.80;;;1.60;;
20884;SDS011;10602;48.000;9.654;2024-03-23T23:11:04;3.23;;;1.50;;
20884;SDS011;10602;48.000;9.654;2024-03-23T23:13:31;2.23;;;1.60;;
20884;SDS011;10602;48.000;9.654;2024-03-23T23:16:00;2.30;;;1.43;;
20884;SDS011;10602;48.000;9.654;2024-03-23T23:18:29;2.30;;;1.37;;
20884;SDS011;10602;48.000;9.654;2024-03-23T23:20:56;2.10;;;1.43;;
20884;SDS011;10602;48.000;9.654;2024-03-23T23:23:25;1.63;;;1.30;;
20884;SDS011;10602;48.000;9.654;2024-03-23T23:25:53;1.50;;;1.40;;
20884;SDS011;10602;48.000;9.654;2024-03-23T23:43:56;1.73;;;1.63;;
20884;SDS011;10602;48.000;9.654;2024-03-23T23:46:24;1.23;;;1.13;;
20884;SDS011;10602;48.000;9.654;2024-03-23T23:48:52;1.13;;;1.00;;
20884;SDS011;10602;48.000;9.654;2024-03-23T23:51:19;1.40;;;1.30;;
20884;SDS011;10602;48.000;9.654;2024-03-23T23:53:47;1.03;;;0.97;;
20884;SDS011;10602;48.000;9.654;2024-03-23T23:56:14;1.23;;;1.07;;
20884;SDS011;10602;48.000;9.654;2024-03-23T23:58:42;1.20;;;1.10;;
